sensor_id;sensor_type;location;lat;lon;timestamp;P1;durP1;ratioP1;P2;durP2;ratioP2
69754;SDS011;57023;52.218;5.158;2023-03-01T00:02:16;20.42;;;11.55;;
69754;SDS011;57023;52.218;5.158;2023-03-01T00:04:41;20.67;;;12.75;;
69754;SDS011;57023;52.218;5.158;2023-03-01T00:07:06;19.35;;;12.02;;
69754;SDS011;57023;52.218;5.158;2023-03-01T00:09:32;20.77;;;12.35;;
69754;SDS011;57023;52.218;5.158;2023-03-01T00:11:57;20.42;;;12.20;;
69754;SDS011;57023;52.218;5.158;2023-03-01T00:14:22;24.42;;;12.60;;
69754;SDS011;57023;52.218;5.158;2023-03-01T00:16:48;20.30;;;12.13;;
69754;SDS011;57023;52.218;5.158;2023-03-01T00:19:15;22.42;;;12.18;;
69754;SDS011;57023;52.218;5.158;2023-03-01T00:21:42;21.45;;;12.45;;
69754;SDS011;57023;52.218;5.158;2023-03-01T00:24:08;21.88;;;13.00;;
69754;SDS011;57023;52.218;5.158;2023-03-01T00:26:33;23.23;;;13.07;;
69754;SDS011;57023;52.218;5.158;2023-03-01T00:28:58;21.25;;;12.57;;
69754;SDS011;57023;52.218;5.158;2023-03-01T00:31:26;36.28;;;16.17;;
69754;SDS011;57023;52.218;5.158;2023-03-01T00:33:54;35.72;;;15.77;;
69754;SDS011;57023;52.218;5.158;2023-03-01T00:36:22;30.83;;;15.18;;
69754;SDS011;57023;52.218;5.158;2023-03-01T00:38:49;34.42;;;15.02;;
69754;SDS011;57023;52.218;5.158;2023-03-01T00:41:15;31.10;;;14.95;;
69754;SDS011;57023;52.218;5.158;2023-03-01T00:43:41;29.05;;;13.95;;
69754;SDS011;57023;52.218;5.158;2023-03-01T00:46:08;26.20;;;14.30;;
69754;SDS011;57023;52.218;5.158;2023-03-01T00:48:37;28.80;;;13.93;;
69754;SDS011;57023;52.218;5.158;2023-03-01T00:51:10;28.92;;;14.63;;
69754;SDS011;57023;52.218;5.158;2023-03-01T00:53:44;25.48;;;13.57;;
69754;SDS011;57023;52.218;5.158;2023-03-01T00:56:10;24.75;;;13.00;;
69754;SDS011;57023;52.218;5.158;2023-03-01T00:58:36;24.65;;;13.73;;
69754;SDS011;57023;52.218;5.158;2023-03-01T01:01:19;20.38;;;12.55;;
69754;SDS011;57023;52.218;5.158;2023-03-01T01:03:50;23.02;;;12.43;;
69754;SDS011;57023;52.218;5.158;2023-03-01T01:06:21;22.02;;;13.05;;
69754;SDS011;57023;52.218;5.158;2023-03-01T01:08:48;22.80;;;13.13;;
69754;SDS011;57023;52.218;5.158;2023-03-01T01:11:13;24.35;;;13.02;;
69754;SDS011;57023;52.218;5.158;2023-03-01T01:13:39;21.05;;;12.48;;
69754;SDS011;57023;52.218;5.158;2023-03-01T01:16:05;21.05;;;13.02;;
69754;SDS011;57023;52.218;5.158;2023-03-01T01:18:30;23.55;;;12.27;;
69754;SDS011;57023;52.218;5.158;2023-03-01T01:20:56;27.17;;;13.63;;
69754;SDS011;57023;52.218;5.158;2023-03-01T01:23:21;22.60;;;12.32;;
69754;SDS011;57023;52.218;5.158;2023-03-01T01:25:46;22.83;;;13.02;;
69754;SDS011;57023;52.218;5.158;2023-03-01T01:28:12;25.15;;;13.30;;
69754;SDS011;57023;52.218;5.158;2023-03-01T01:30:37;23.70;;;13.48;;
69754;SDS011;57023;52.218;5.158;2023-03-01T01:33:02;23.17;;;12.85;;
69754;SDS011;57023;52.218;5.158;2023-03-01T01:35:28;23.02;;;12.70;;
69754;SDS011;57023;52.218;5.158;2023-03-01T01:37:53;22.20;;;12.88;;
69754;SDS011;57023;52.218;5.158;2023-03-01T01:40:18;21.90;;;12.32;;
69754;SDS011;57023;52.218;5.158;2023-03-01T01:42:44;23.73;;;13.02;;
69754;SDS011;57023;52.218;5.158;2023-03-01T01:45:30;22.77;;;12.50;;
69754;SDS011;57023;52.218;5.158;2023-03-01T01:48:06;21.67;;;12.30;;
69754;SDS011;57023;52.218;5.158;2023-03-01T01:50:36;23.20;;;12.30;;
69754;SDS011;57023;52.218;5.158;2023-03-01T01:53:12;25.80;;;13.25;;
69754;SDS011;57023;52.218;5.158;2023-03-01T01:55:42;23.45;;;12.85;;
69754;SDS011;57023;52.218;5.158;2023-03-01T01:58:11;21.75;;;12.43;;
69754;SDS011;57023;52.218;5.158;2023-03-01T02:00:37;23.73;;;12.95;;
69754;SDS011;57023;52.218;5.158;2023-03-01T02:03:11;21.55;;;13.02;;
69754;SDS011;57023;52.218;5.158;2023-03-01T02:05:52;23.27;;;13.35;;
69754;SDS011;57023;52.218;5.158;2023-03-01T02:08:20;23.92;;;12.68;;
69754;SDS011;57023;52.218;5.158;2023-03-01T02:10:47;23.80;;;12.32;;
69754;SDS011;57023;52.218;5.158;2023-03-01T02:13:15;22.90;;;12.82;;
69754;SDS011;57023;52.218;5.158;2023-03-01T02:15:41;21.33;;;12.63;;
69754;SDS011;57023;52.218;5.158;2023-03-01T02:20:44;18.63;;;11.63;;
69754;SDS011;57023;52.218;5.158;2023-03-01T02:23:19;21.27;;;12.10;;
69754;SDS011;57023;52.218;5.158;2023-03-01T02:25:51;20.52;;;12.20;;
69754;SDS011;57023;52.218;5.158;2023-03-01T02:28:24;20.10;;;11.50;;
69754;SDS011;57023;52.218;5.158;2023-03-01T02:30:51;22.60;;;11.80;;
69754;SDS011;57023;52.218;5.158;2023-03-01T02:33:37;22.13;;;12.02;;
69754;SDS011;57023;52.218;5.158;2023-03-01T02:36:04;21.33;;;12.02;;
69754;SDS011;57023;52.218;5.158;2023-03-01T02:38:32;20.92;;;12.43;;
69754;SDS011;57023;52.218;5.158;2023-03-01T02:40:58;21.50;;;12.27;;
69754;SDS011;57023;52.218;5.158;2023-03-01T02:43:24;19.27;;;11.82;;
69754;SDS011;57023;52.218;5.158;2023-03-01T02:45:52;23.02;;;12.50;;
69754;SDS011;57023;52.218;5.158;2023-03-01T02:48:19;21.73;;;12.10;;
69754;SDS011;57023;52.218;5.158;2023-03-01T02:51:01;24.10;;;12.43;;
69754;SDS011;57023;52.218;5.158;2023-03-01T02:53:41;22.33;;;11.80;;
69754;SDS011;57023;52.218;5.158;2023-03-01T02:56:11;21.33;;;11.80;;
69754;SDS011;57023;52.218;5.158;2023-03-01T02:58:38;21.55;;;12.10;;
69754;SDS011;57023;52.218;5.158;2023-03-01T03:01:10;25.20;;;12.27;;
69754;SDS011;57023;52.218;5.158;2023-03-01T03:03:38;20.42;;;12.75;;
69754;SDS011;57023;52.218;5.158;2023-03-01T03:06:03;21.05;;;11.82;;
69754;SDS011;57023;52.218;5.158;2023-03-01T03:08:29;23.00;;;12.15;;
69754;SDS011;57023;52.218;5.158;2023-03-01T03:10:54;25.15;;;12.73;;
69754;SDS011;57023;52.218;5.158;2023-03-01T03:13:19;21.65;;;13.07;;
69754;SDS011;57023;52.218;5.158;2023-03-01T03:15:47;23.67;;;12.18;;
69754;SDS011;57023;52.218;5.158;2023-03-01T03:18:13;20.80;;;12.02;;
69754;SDS011;57023;52.218;5.158;2023-03-01T03:20:41;21.52;;;12.50;;
69754;SDS011;57023;52.218;5.158;2023-03-01T03:23:07;21.52;;;12.07;;
69754;SDS011;57023;52.218;5.158;2023-03-01T03:25:32;24.13;;;12.25;;
69754;SDS011;57023;52.218;5.158;2023-03-01T03:27:57;20.23;;;11.82;;
69754;SDS011;57023;52.218;5.158;2023-03-01T03:30:24;20.88;;;11.77;;
69754;SDS011;57023;52.218;5.158;2023-03-01T03:32:51;20.92;;;12.45;;
69754;SDS011;57023;52.218;5.158;2023-03-01T03:36:01;19.85;;;11.80;;
69754;SDS011;57023;52.218;5.158;2023-03-01T03:38:09;26.08;;;13.95;;
69754;SDS011;57023;52.218;5.158;2023-03-01T03:40:48;24.42;;;12.82;;
69754;SDS011;57023;52.218;5.158;2023-03-01T03:43:21;21.88;;;11.85;;
69754;SDS011;57023;52.218;5.158;2023-03-01T03:45:48;22.75;;;11.52;;
69754;SDS011;57023;52.218;5.158;2023-03-01T03:48:14;22.08;;;11.68;;
69754;SDS011;57023;52.218;5.158;2023-03-01T03:50:40;19.58;;;11.75;;
69754;SDS011;57023;52.218;5.158;2023-03-01T03:53:07;19.70;;;11.32;;
69754;SDS011;57023;52.218;5.158;2023-03-01T03:55:34;22.20;;;11.27;;
69754;SDS011;57023;52.218;5.158;2023-03-01T03:58:00;21.52;;;11.60;;
69754;SDS011;57023;52.218;5.158;2023-03-01T04:00:31;21.60;;;12.25;;
69754;SDS011;57023;52.218;5.158;2023-03-01T04:02:58;21.52;;;11.45;;
69754;SDS011;57023;52.218;5.158;2023-03-01T04:05:23;22.52;;;11.77;;
69754;SDS011;57023;52.218;5.158;2023-03-01T04:07:49;20.50;;;11.43;;
69754;SDS011;57023;52.218;5.158;2023-03-01T04:10:15;23.35;;;11.73;;
69754;SDS011;57023;52.218;5.158;2023-03-01T04:15:10;19.33;;;11.07;;
69754;SDS011;57023;52.218;5.158;2023-03-01T04:17:42;21.63;;;11.98;;
69754;SDS011;57023;52.218;5.158;2023-03-01T04:20:13;22.05;;;10.98;;
69754;SDS011;57023;52.218;5.158;2023-03-01T04:22:42;20.40;;;10.93;;
69754;SDS011;57023;52.218;5.158;2023-03-01T04:25:08;18.77;;;10.13;;
69754;SDS011;57023;52.218;5.158;2023-03-01T04:27:33;18.85;;;10.35;;
69754;SDS011;57023;52.218;5.158;2023-03-01T04:29:59;20.92;;;11.23;;
69754;SDS011;57023;52.218;5.158;2023-03-01T04:32:24;18.70;;;10.23;;
69754;SDS011;57023;52.218;5.158;2023-03-01T04:34:50;19.50;;;10.68;;
69754;SDS011;57023;52.218;5.158;2023-03-01T04:37:15;19.85;;;10.48;;
69754;SDS011;57023;52.218;5.158;2023-03-01T04:39:40;18.63;;;10.73;;
69754;SDS011;57023;52.218;5.158;2023-03-01T04:42:10;17.77;;;10.18;;
69754;SDS011;57023;52.218;5.158;2023-03-01T04:44:36;18.15;;;10.50;;
69754;SDS011;57023;52.218;5.158;2023-03-01T04:47:01;18.35;;;11.07;;
69754;SDS011;57023;52.218;5.158;2023-03-01T04:49:27;19.92;;;11.10;;
69754;SDS011;57023;52.218;5.158;2023-03-01T04:51:52;18.35;;;10.27;;
69754;SDS011;57023;52.218;5.158;2023-03-01T04:54:17;18.23;;;10.13;;
69754;SDS011;57023;52.218;5.158;2023-03-01T04:56:42;19.85;;;10.38;;
69754;SDS011;57023;52.218;5.158;2023-03-01T04:59:08;17.85;;;10.38;;
69754;SDS011;57023;52.218;5.158;2023-03-01T05:01:34;19.10;;;10.90;;
69754;SDS011;57023;52.218;5.158;2023-03-01T05:04:00;20.27;;;10.93;;
69754;SDS011;57023;52.218;5.158;2023-03-01T05:06:28;19.23;;;11.05;;
69754;SDS011;57023;52.218;5.158;2023-03-01T05:08:53;18.92;;;10.25;;
69754;SDS011;57023;52.218;5.158;2023-03-01T05:11:19;17.70;;;10.05;;
69754;SDS011;57023;52.218;5.158;2023-03-01T05:13:44;18.02;;;10.73;;
69754;SDS011;57023;52.218;5.158;2023-03-01T05:16:09;19.73;;;11.35;;
69754;SDS011;57023;52.218;5.158;2023-03-01T05:18:36;21.75;;;11.02;;
69754;SDS011;57023;52.218;5.158;2023-03-01T05:21:05;20.10;;;11.60;;
69754;SDS011;57023;52.218;5.158;2023-03-01T05:23:32;22.85;;;11.88;;
69754;SDS011;57023;52.218;5.158;2023-03-01T05:25:59;20.40;;;12.10;;
69754;SDS011;57023;52.218;5.158;2023-03-01T05:28:25;23.05;;;12.27;;
69754;SDS011;57023;52.218;5.158;2023-03-01T05:30:51;21.90;;;12.52;;
69754;SDS011;57023;52.218;5.158;2023-03-01T05:33:16;21.67;;;12.35;;
69754;SDS011;57023;52.218;5.158;2023-03-01T05:35:42;21.90;;;12.18;;
69754;SDS011;57023;52.218;5.158;2023-03-01T05:38:09;22.67;;;12.07;;
69754;SDS011;57023;52.218;5.158;2023-03-01T05:40:38;23.83;;;13.00;;
69754;SDS011;57023;52.218;5.158;2023-03-01T05:43:04;21.25;;;11.98;;
69754;SDS011;57023;52.218;5.158;2023-03-01T05:45:30;22.88;;;12.18;;
69754;SDS011;57023;52.218;5.158;2023-03-01T05:47:57;21.75;;;12.48;;
69754;SDS011;57023;52.218;5.158;2023-03-01T05:50:24;23.58;;;13.07;;
69754;SDS011;57023;52.218;5.158;2023-03-01T05:52:51;24.92;;;12.70;;
69754;SDS011;57023;52.218;5.158;2023-03-01T05:55:22;24.02;;;13.27;;
69754;SDS011;57023;52.218;5.158;2023-03-01T05:57:48;25.13;;;13.70;;
69754;SDS011;57023;52.218;5.158;2023-03-01T06:00:15;27.25;;;14.32;;
69754;SDS011;57023;52.218;5.158;2023-03-01T06:02:41;28.52;;;13.80;;
69754;SDS011;57023;52.218;5.158;2023-03-01T06:05:07;28.23;;;15.60;;
69754;SDS011;57023;52.218;5.158;2023-03-01T06:07:34;28.05;;;15.18;;
69754;SDS011;57023;52.218;5.158;2023-03-01T06:10:00;25.92;;;13.65;;
69754;SDS011;57023;52.218;5.158;2023-03-01T06:12:26;27.50;;;14.38;;
69754;SDS011;57023;52.218;5.158;2023-03-01T06:14:51;28.35;;;14.15;;
69754;SDS011;57023;52.218;5.158;2023-03-01T06:17:16;28.63;;;14.73;;
69754;SDS011;57023;52.218;5.158;2023-03-01T06:19:42;30.20;;;15.23;;
69754;SDS011;57023;52.218;5.158;2023-03-01T06:22:07;27.30;;;14.88;;
69754;SDS011;57023;52.218;5.158;2023-03-01T06:24:33;24.67;;;13.95;;
69754;SDS011;57023;52.218;5.158;2023-03-01T06:26:58;25.23;;;13.77;;
69754;SDS011;57023;52.218;5.158;2023-03-01T06:29:24;29.88;;;14.88;;
69754;SDS011;57023;52.218;5.158;2023-03-01T06:31:49;29.13;;;15.13;;
69754;SDS011;57023;52.218;5.158;2023-03-01T06:34:14;26.70;;;13.98;;
69754;SDS011;57023;52.218;5.158;2023-03-01T06:36:40;23.40;;;13.65;;
69754;SDS011;57023;52.218;5.158;2023-03-01T06:39:05;26.10;;;14.15;;
69754;SDS011;57023;52.218;5.158;2023-03-01T06:41:31;26.08;;;15.00;;
69754;SDS011;57023;52.218;5.158;2023-03-01T06:43:57;29.10;;;15.73;;
69754;SDS011;57023;52.218;5.158;2023-03-01T06:46:23;30.05;;;14.57;;
69754;SDS011;57023;52.218;5.158;2023-03-01T06:48:49;30.33;;;15.65;;
69754;SDS011;57023;52.218;5.158;2023-03-01T06:51:14;30.05;;;15.43;;
69754;SDS011;57023;52.218;5.158;2023-03-01T06:53:39;30.60;;;15.88;;
69754;SDS011;57023;52.218;5.158;2023-03-01T06:56:05;30.20;;;15.45;;
69754;SDS011;57023;52.218;5.158;2023-03-01T06:58:30;30.60;;;16.00;;
69754;SDS011;57023;52.218;5.158;2023-03-01T07:00:56;29.23;;;15.70;;
69754;SDS011;57023;52.218;5.158;2023-03-01T07:03:21;29.25;;;16.45;;
69754;SDS011;57023;52.218;5.158;2023-03-01T07:05:50;30.23;;;16.17;;
69754;SDS011;57023;52.218;5.158;2023-03-01T07:08:19;32.00;;;17.10;;
69754;SDS011;57023;52.218;5.158;2023-03-01T07:10:44;35.10;;;16.67;;
69754;SDS011;57023;52.218;5.158;2023-03-01T07:13:09;35.08;;;17.63;;
69754;SDS011;57023;52.218;5.158;2023-03-01T07:15:35;36.85;;;18.63;;
69754;SDS011;57023;52.218;5.158;2023-03-01T07:18:00;35.28;;;17.52;;
69754;SDS011;57023;52.218;5.158;2023-03-01T07:20:26;37.05;;;19.48;;
69754;SDS011;57023;52.218;5.158;2023-03-01T07:22:52;40.08;;;19.58;;
69754;SDS011;57023;52.218;5.158;2023-03-01T07:25:18;38.63;;;19.10;;
69754;SDS011;57023;52.218;5.158;2023-03-01T07:27:43;38.45;;;19.52;;
69754;SDS011;57023;52.218;5.158;2023-03-01T07:30:09;39.45;;;19.45;;
69754;SDS011;57023;52.218;5.158;2023-03-01T07:32:35;36.72;;;18.25;;
69754;SDS011;57023;52.218;5.158;2023-03-01T07:35:01;36.88;;;18.15;;
69754;SDS011;57023;52.218;5.158;2023-03-01T07:37:26;37.67;;;18.40;;
69754;SDS011;57023;52.218;5.158;2023-03-01T07:39:51;37.15;;;18.02;;
69754;SDS011;57023;52.218;5.158;2023-03-01T07:42:17;35.50;;;18.00;;
69754;SDS011;57023;52.218;5.158;2023-03-01T07:44:42;39.80;;;18.25;;
69754;SDS011;57023;52.218;5.158;2023-03-01T07:47:07;32.97;;;17.15;;
69754;SDS011;57023;52.218;5.158;2023-03-01T07:49:33;34.63;;;18.00;;
69754;SDS011;57023;52.218;5.158;2023-03-01T07:51:58;33.10;;;17.05;;
69754;SDS011;57023;52.218;5.158;2023-03-01T07:54:23;31.90;;;16.38;;
69754;SDS011;57023;52.218;5.158;2023-03-01T07:56:49;37.75;;;17.95;;
69754;SDS011;57023;52.218;5.158;2023-03-01T07:59:14;29.02;;;16.05;;
69754;SDS011;57023;52.218;5.158;2023-03-01T08:01:39;36.28;;;16.95;;
69754;SDS011;57023;52.218;5.158;2023-03-01T08:04:05;27.67;;;15.32;;
69754;SDS011;57023;52.218;5.158;2023-03-01T08:06:33;31.50;;;15.97;;
69754;SDS011;57023;52.218;5.158;2023-03-01T08:08:59;27.53;;;14.77;;
69754;SDS011;57023;52.218;5.158;2023-03-01T08:11:24;28.88;;;14.90;;
69754;SDS011;57023;52.218;5.158;2023-03-01T08:13:49;25.80;;;14.60;;
69754;SDS011;57023;52.218;5.158;2023-03-01T08:16:15;25.60;;;13.77;;
69754;SDS011;57023;52.218;5.158;2023-03-01T08:18:41;24.42;;;12.82;;
69754;SDS011;57023;52.218;5.158;2023-03-01T08:21:14;23.45;;;12.70;;
69754;SDS011;57023;52.218;5.158;2023-03-01T08:23:41;22.08;;;12.13;;
69754;SDS011;57023;52.218;5.158;2023-03-01T08:26:07;22.67;;;12.55;;
69754;SDS011;57023;52.218;5.158;2023-03-01T08:28:37;23.05;;;12.80;;
69754;SDS011;57023;52.218;5.158;2023-03-01T08:31:04;24.95;;;12.70;;
69754;SDS011;57023;52.218;5.158;2023-03-01T08:33:59;20.73;;;11.98;;
69754;SDS011;57023;52.218;5.158;2023-03-01T08:36:26;19.48;;;11.35;;
69754;SDS011;57023;52.218;5.158;2023-03-01T08:38:52;19.42;;;10.82;;
69754;SDS011;57023;52.218;5.158;2023-03-01T08:41:18;17.35;;;10.85;;
69754;SDS011;57023;52.218;5.158;2023-03-01T08:43:43;19.90;;;11.63;;
69754;SDS011;57023;52.218;5.158;2023-03-01T08:46:09;20.02;;;11.70;;
69754;SDS011;57023;52.218;5.158;2023-03-01T08:48:35;19.15;;;11.10;;
69754;SDS011;57023;52.218;5.158;2023-03-01T08:51:10;19.55;;;10.52;;
69754;SDS011;57023;52.218;5.158;2023-03-01T08:53:40;19.95;;;10.60;;
69754;SDS011;57023;52.218;5.158;2023-03-01T08:56:06;17.65;;;10.75;;
69754;SDS011;57023;52.218;5.158;2023-03-01T08:58:31;18.13;;;10.82;;
69754;SDS011;57023;52.218;5.158;2023-03-01T09:00:57;21.27;;;11.18;;
69754;SDS011;57023;52.218;5.158;2023-03-01T09:03:23;19.13;;;11.07;;
69754;SDS011;57023;52.218;5.158;2023-03-01T09:05:49;17.83;;;10.35;;
69754;SDS011;57023;52.218;5.158;2023-03-01T09:08:16;18.67;;;10.73;;
69754;SDS011;57023;52.218;5.158;2023-03-01T09:10:41;21.10;;;11.73;;
69754;SDS011;57023;52.218;5.158;2023-03-01T09:13:07;17.00;;;10.25;;
69754;SDS011;57023;52.218;5.158;2023-03-01T09:15:33;15.18;;;9.25;;
69754;SDS011;57023;52.218;5.158;2023-03-01T09:17:58;15.07;;;10.05;;
69754;SDS011;57023;52.218;5.158;2023-03-01T09:20:24;14.25;;;9.23;;
69754;SDS011;57023;52.218;5.158;2023-03-01T09:22:49;14.95;;;9.38;;
69754;SDS011;57023;52.218;5.158;2023-03-01T09:25:15;16.00;;;8.85;;
69754;SDS011;57023;52.218;5.158;2023-03-01T09:27:40;15.13;;;9.25;;
69754;SDS011;57023;52.218;5.158;2023-03-01T09:30:06;13.75;;;8.50;;
69754;SDS011;57023;52.218;5.158;2023-03-01T09:32:34;14.23;;;8.50;;
69754;SDS011;57023;52.218;5.158;2023-03-01T09:34:59;11.52;;;7.63;;
69754;SDS011;57023;52.218;5.158;2023-03-01T09:37:31;12.43;;;7.95;;
69754;SDS011;57023;52.218;5.158;2023-03-01T09:39:58;16.33;;;9.13;;
69754;SDS011;57023;52.218;5.158;2023-03-01T09:42:23;15.00;;;9.05;;
69754;SDS011;57023;52.218;5.158;2023-03-01T09:44:56;15.98;;;9.48;;
69754;SDS011;57023;52.218;5.158;2023-03-01T09:47:29;15.95;;;10.07;;
69754;SDS011;57023;52.218;5.158;2023-03-01T09:50:02;16.98;;;10.60;;
69754;SDS011;57023;52.218;5.158;2023-03-01T09:55:39;15.50;;;9.07;;
69754;SDS011;57023;52.218;5.158;2023-03-01T09:58:37;15.07;;;9.00;;
69754;SDS011;57023;52.218;5.158;2023-03-01T10:04:44;12.95;;;8.35;;
69754;SDS011;57023;52.218;5.158;2023-03-01T10:09:34;10.55;;;6.70;;
69754;SDS011;57023;52.218;5.158;2023-03-01T10:12:02;10.40;;;6.72;;
69754;SDS011;57023;52.218;5.158;2023-03-01T10:14:48;11.75;;;7.30;;
69754;SDS011;57023;52.218;5.158;2023-03-01T10:20:25;10.57;;;6.38;;
69754;SDS011;57023;52.218;5.158;2023-03-01T10:23:07;9.00;;;6.05;;
69754;SDS011;57023;52.218;5.158;2023-03-01T10:28:24;8.63;;;5.77;;
69754;SDS011;57023;52.218;5.158;2023-03-01T10:30:51;9.77;;;6.10;;
69754;SDS011;57023;52.218;5.158;2023-03-01T10:33:17;8.80;;;5.85;;
69754;SDS011;57023;52.218;5.158;2023-03-01T10:35:46;9.15;;;5.70;;
69754;SDS011;57023;52.218;5.158;2023-03-01T10:38:13;9.33;;;5.87;;
69754;SDS011;57023;52.218;5.158;2023-03-01T10:40:53;10.17;;;5.60;;
69754;SDS011;57023;52.218;5.158;2023-03-01T10:43:19;8.15;;;5.32;;
69754;SDS011;57023;52.218;5.158;2023-03-01T10:45:44;10.00;;;5.70;;
69754;SDS011;57023;52.218;5.158;2023-03-01T10:50:48;8.70;;;5.50;;
69754;SDS011;57023;52.218;5.158;2023-03-01T10:53:22;8.82;;;5.70;;
69754;SDS011;57023;52.218;5.158;2023-03-01T10:58:26;8.90;;;6.43;;
69754;SDS011;57023;52.218;5.158;2023-03-01T11:00:56;9.70;;;6.15;;
69754;SDS011;57023;52.218;5.158;2023-03-01T11:03:31;12.07;;;6.03;;
69754;SDS011;57023;52.218;5.158;2023-03-01T11:06:04;8.85;;;5.80;;
69754;SDS011;57023;52.218;5.158;2023-03-01T11:08:40;8.85;;;5.72;;
69754;SDS011;57023;52.218;5.158;2023-03-01T11:11:51;8.18;;;5.78;;
69754;SDS011;57023;52.218;5.158;2023-03-01T11:14:18;7.95;;;4.75;;
69754;SDS011;57023;52.218;5.158;2023-03-01T11:16:44;8.15;;;5.72;;
69754;SDS011;57023;52.218;5.158;2023-03-01T11:24:19;7.90;;;5.38;;
69754;SDS011;57023;52.218;5.158;2023-03-01T11:26:52;11.25;;;5.85;;
69754;SDS011;57023;52.218;5.158;2023-03-01T11:32:05;8.35;;;5.28;;
69754;SDS011;57023;52.218;5.158;2023-03-01T11:40:32;9.35;;;6.15;;
69754;SDS011;57023;52.218;5.158;2023-03-01T11:43:05;9.60;;;5.50;;
69754;SDS011;57023;52.218;5.158;2023-03-01T11:45:39;8.98;;;5.43;;
69754;SDS011;57023;52.218;5.158;2023-03-01T11:51:01;10.20;;;5.88;;
69754;SDS011;57023;52.218;5.158;2023-03-01T12:03:06;7.80;;;5.45;;
69754;SDS011;57023;52.218;5.158;2023-03-01T12:08:14;8.55;;;5.85;;
69754;SDS011;57023;52.218;5.158;2023-03-01T12:41:12;8.80;;;5.65;;
69754;SDS011;57023;52.218;5.158;2023-03-01T12:46:52;8.70;;;5.45;;
69754;SDS011;57023;52.218;5.158;2023-03-01T12:49:34;7.55;;;5.60;;
69754;SDS011;57023;52.218;5.158;2023-03-01T12:55:01;8.68;;;5.80;;
69754;SDS011;57023;52.218;5.158;2023-03-01T12:57:33;8.88;;;5.32;;
69754;SDS011;57023;52.218;5.158;2023-03-01T13:03:00;9.20;;;5.25;;
69754;SDS011;57023;52.218;5.158;2023-03-01T13:05:40;8.48;;;5.25;;
69754;SDS011;57023;52.218;5.158;2023-03-01T13:08:27;7.20;;;5.10;;
69754;SDS011;57023;52.218;5.158;2023-03-01T13:10:58;7.70;;;5.50;;
69754;SDS011;57023;52.218;5.158;2023-03-01T13:13:27;8.35;;;5.07;;
69754;SDS011;57023;52.218;5.158;2023-03-01T13:15:53;7.68;;;5.10;;
69754;SDS011;57023;52.218;5.158;2023-03-01T13:20:51;7.85;;;4.72;;
69754;SDS011;57023;52.218;5.158;2023-03-01T13:44:11;7.45;;;5.20;;
69754;SDS011;57023;52.218;5.158;2023-03-01T13:46:37;10.80;;;5.30;;
69754;SDS011;57023;52.218;5.158;2023-03-01T13:49:03;8.93;;;5.40;;
69754;SDS011;57023;52.218;5.158;2023-03-01T13:51:28;7.43;;;5.05;;
69754;SDS011;57023;52.218;5.158;2023-03-01T13:53:54;8.18;;;5.28;;
69754;SDS011;57023;52.218;5.158;2023-03-01T13:56:27;8.07;;;5.22;;
69754;SDS011;57023;52.218;5.158;2023-03-01T13:58:54;7.47;;;5.30;;
69754;SDS011;57023;52.218;5.158;2023-03-01T14:03:50;7.30;;;5.25;;
69754;SDS011;57023;52.218;5.158;2023-03-01T14:06:16;7.88;;;5.00;;
69754;SDS011;57023;52.218;5.158;2023-03-01T14:08:45;6.93;;;4.97;;
69754;SDS011;57023;52.218;5.158;2023-03-01T14:25:05;7.53;;;5.20;;
69754;SDS011;57023;52.218;5.158;2023-03-01T14:27:41;9.63;;;4.68;;
69754;SDS011;57023;52.218;5.158;2023-03-01T14:30:14;9.02;;;5.15;;
69754;SDS011;57023;52.218;5.158;2023-03-01T14:32:51;7.00;;;4.97;;
69754;SDS011;57023;52.218;5.158;2023-03-01T14:35:28;8.70;;;4.72;;
69754;SDS011;57023;52.218;5.158;2023-03-01T14:37:55;9.05;;;5.00;;
69754;SDS011;57023;52.218;5.158;2023-03-01T14:40:22;7.57;;;4.65;;
69754;SDS011;57023;52.218;5.158;2023-03-01T14:42:49;8.05;;;4.80;;
69754;SDS011;57023;52.218;5.158;2023-03-01T14:45:15;8.52;;;5.15;;
69754;SDS011;57023;52.218;5.158;2023-03-01T14:50:09;7.30;;;5.20;;
69754;SDS011;57023;52.218;5.158;2023-03-01T14:52:45;7.82;;;5.32;;
69754;SDS011;57023;52.218;5.158;2023-03-01T14:55:18;7.72;;;5.03;;
69754;SDS011;57023;52.218;5.158;2023-03-01T14:57:50;8.07;;;5.30;;
69754;SDS011;57023;52.218;5.158;2023-03-01T15:00:23;8.05;;;5.70;;
69754;SDS011;57023;52.218;5.158;2023-03-01T15:02:51;10.57;;;5.60;;
69754;SDS011;57023;52.218;5.158;2023-03-01T15:05:18;7.43;;;5.05;;
69754;SDS011;57023;52.218;5.158;2023-03-01T15:07:50;8.13;;;5.30;;
69754;SDS011;57023;52.218;5.158;2023-03-01T15:10:20;10.10;;;5.22;;
69754;SDS011;57023;52.218;5.158;2023-03-01T15:12:47;8.27;;;5.20;;
69754;SDS011;57023;52.218;5.158;2023-03-01T15:15:20;7.30;;;4.88;;
69754;SDS011;57023;52.218;5.158;2023-03-01T15:17:55;10.07;;;5.63;;
69754;SDS011;57023;52.218;5.158;2023-03-01T15:20:23;7.97;;;5.78;;
69754;SDS011;57023;52.218;5.158;2023-03-01T15:22:55;8.82;;;5.72;;
69754;SDS011;57023;52.218;5.158;2023-03-01T15:25:24;8.77;;;5.23;;
69754;SDS011;57023;52.218;5.158;2023-03-01T15:27:52;11.02;;;6.03;;
69754;SDS011;57023;52.218;5.158;2023-03-01T15:30:19;7.90;;;5.35;;
69754;SDS011;57023;52.218;5.158;2023-03-01T15:32:47;8.88;;;5.00;;
69754;SDS011;57023;52.218;5.158;2023-03-01T15:35:33;7.10;;;4.97;;
69754;SDS011;57023;52.218;5.158;2023-03-01T15:38:22;7.07;;;4.97;;
69754;SDS011;57023;52.218;5.158;2023-03-01T15:40:54;8.73;;;5.32;;
69754;SDS011;57023;52.218;5.158;2023-03-01T15:46:26;9.30;;;5.57;;
69754;SDS011;57023;52.218;5.158;2023-03-01T15:48:54;9.88;;;5.80;;
69754;SDS011;57023;52.218;5.158;2023-03-01T15:51:26;8.30;;;5.63;;
69754;SDS011;57023;52.218;5.158;2023-03-01T15:53:53;8.73;;;5.40;;
69754;SDS011;57023;52.218;5.158;2023-03-01T15:56:19;9.90;;;5.93;;
69754;SDS011;57023;52.218;5.158;2023-03-01T15:58:44;9.57;;;5.88;;
69754;SDS011;57023;52.218;5.158;2023-03-01T16:01:13;9.48;;;5.68;;
69754;SDS011;57023;52.218;5.158;2023-03-01T16:03:39;9.50;;;6.00;;
69754;SDS011;57023;52.218;5.158;2023-03-01T16:06:05;11.57;;;7.10;;
69754;SDS011;57023;52.218;5.158;2023-03-01T16:08:30;10.27;;;5.80;;
69754;SDS011;57023;52.218;5.158;2023-03-01T16:10:56;13.45;;;7.35;;
69754;SDS011;57023;52.218;5.158;2023-03-01T16:13:21;8.27;;;5.70;;
69754;SDS011;57023;52.218;5.158;2023-03-01T16:15:46;8.93;;;6.30;;
69754;SDS011;57023;52.218;5.158;2023-03-01T16:18:12;11.52;;;7.13;;
69754;SDS011;57023;52.218;5.158;2023-03-01T16:20:37;10.07;;;5.85;;
69754;SDS011;57023;52.218;5.158;2023-03-01T16:23:04;10.05;;;6.78;;
69754;SDS011;57023;52.218;5.158;2023-03-01T16:25:31;9.73;;;6.32;;
69754;SDS011;57023;52.218;5.158;2023-03-01T16:27:57;10.10;;;6.22;;
69754;SDS011;57023;52.218;5.158;2023-03-01T16:30:25;10.73;;;6.28;;
69754;SDS011;57023;52.218;5.158;2023-03-01T16:32:52;10.52;;;6.93;;
69754;SDS011;57023;52.218;5.158;2023-03-01T16:35:18;12.13;;;7.60;;
69754;SDS011;57023;52.218;5.158;2023-03-01T16:37:45;10.80;;;6.38;;
69754;SDS011;57023;52.218;5.158;2023-03-01T16:40:18;10.93;;;7.03;;
69754;SDS011;57023;52.218;5.158;2023-03-01T16:42:45;12.77;;;7.53;;
69754;SDS011;57023;52.218;5.158;2023-03-01T16:45:11;10.55;;;7.15;;
69754;SDS011;57023;52.218;5.158;2023-03-01T16:47:37;11.18;;;6.72;;
69754;SDS011;57023;52.218;5.158;2023-03-01T16:50:02;9.88;;;6.30;;
69754;SDS011;57023;52.218;5.158;2023-03-01T16:52:27;14.00;;;6.28;;
69754;SDS011;57023;52.218;5.158;2023-03-01T16:54:53;9.80;;;6.35;;